Time;durP1;ratioP1;P1;durP2;ratioP2;P2;SDS_P1;SDS_P2;PMS_P1;PMS_P2;Temp;Humidity;BMP_temperature;BMP_pressure;BME280_temperature;BME280_humidity;BME280_pressure;Samples;Min_cycle;Max_cycle;Signal;HPM_P1;HPM_P2
2023/07/04 00:00:23;;;;;;;;;;;;;;;16.27;91.37;96383.06;4967032;29;19976;-72
2023/07/04 00:02:49;;;;;;;;;;;;;;;16.23;90.08;96366.09;4950900;29;20244;-70
2023/07/04 00:05:15;;;;;;;;;;;;;;;16.19;91.13;96373.75;4967979;29;19968;-72
2023/07/04 00:07:41;;;;;;;;;;;;;;;16.17;89.80;96364.50;4951372;29;19968;-71
2023/07/04 00:10:08;;;;;;;;;;;;;;;16.10;91.96;96375.28;4967041;29;19954;-71
2023/07/04 00:12:33;;;;;;;;;;;;;;;16.01;93.79;96364.38;4967215;29;20151;-72
2023/07/04 00:14:59;;;;;;;;;;;;;;;15.93;93.88;96364.06;4967014;29;19955;-73
2023/07/04 00:17:25;;;;;;;;;;;;;;;15.88;93.85;96364.03;4968177;29;19971;-71
2023/07/04 00:19:51;;;;;;;;;;;;;;;15.86;93.18;96360.84;4968270;29;20152;-70
2023/07/04 00:22:17;;;;;;;;;;;;;;;15.85;95.50;96361.88;4968329;29;19964;-70
2023/07/04 00:24:44;;;;;;;;;;;;;;;15.81;95.20;96353.63;4967606;29;20075;-70
2023/07/04 00:27:12;;;;;;;;;;;;;;;15.78;96.25;96360.25;4968394;29;19943;-70
2023/07/04 00:29:38;;;;;;;;;;;;;;;15.77;95.00;96358.66;4968327;29;19961;-70
2023/07/04 00:32:05;;;;;;;;;;;;;;;15.79;94.90;96363.69;4967671;29;19968;-70
2023/07/04 00:34:31;;;;;;;;;;;;;;;15.82;94.28;96349.97;4968055;29;20174;-70
2023/07/04 00:37:01;;;;;;;;;;;;;;;15.82;95.06;96358.69;4968063;29;19962;-72
2023/07/04 00:39:28;;;;;;;;;;;;;;;15.83;94.14;96365.59;4967894;29;19960;-73
2023/07/04 00:41:54;;;;;;;;;;;;;;;15.85;95.34;96375.09;4967746;29;19958;-71
2023/07/04 00:44:23;;;;;;;;;;;;;;;15.87;96.10;96371.13;4967558;28;20140;-72
2023/07/04 00:47:04;;;;;;;;;;;;;;;15.88;97.88;96382.53;4966287;29;19964;-72
2023/07/04 00:49:37;;;;;;;;;;;;;;;15.88;97.35;96383.31;4967681;29;19983;-72
2023/07/04 00:52:06;;;;;;;;;;;;;;;15.92;97.20;96388.91;4967601;29;19956;-72
2023/07/04 00:54:36;;;;;;;;;;;;;;;15.90;98.94;96389.16;4966560;29;20155;-73
2023/07/04 00:57:04;;;;;;;;;;;;;;;15.88;100.00;96388.63;4967412;29;20129;-73
2023/07/04 00:59:32;;;;;;;;;;;;;;;15.83;99.98;96378.81;4967280;29;19956;-73
2023/07/04 01:01:58;;;;;;;;;;;;;;;15.82;100.00;96376.41;4967407;29;19962;-73
2023/07/04 01:04:24;;;;;;;;;;;;;;;15.78;100.00;96381.41;4967222;29;19956;-72
2023/07/04 01:06:55;;;;;;;;;;;;;;;15.77;100.00;96377.16;4967463;29;20031;-72
2023/07/04 01:09:23;;;;;;;;;;;;;;;15.76;100.00;96375.56;4967502;29;19965;-69
2023/07/04 01:11:50;;;;;;;;;;;;;;;15.79;100.00;96382.19;4967400;29;19958;-72
2023/07/04 01:14:24;;;;;;;;;;;;;;;15.82;100.00;96390.41;4967210;29;20231;-77
2023/07/04 01:16:50;;;;;;;;;;;;;;;15.85;100.00;96377.75;4967743;29;19957;-74
2023/07/04 01:19:21;;;;;;;;;;;;;;;15.87;100.00;96386.22;4967086;29;20116;-75
2023/07/04 01:21:48;;;;;;;;;;;;;;;15.89;100.00;96387.56;4967076;29;20143;-76
2023/07/04 01:24:22;;;;;;;;;;;;;;;15.92;100.00;96394.22;4965638;29;20125;-76
2023/07/04 01:26:49;;;;;;;;;;;;;;;15.95;100.00;96393.69;4967099;29;20014;-76
2023/07/04 01:29:16;;;;;;;;;;;;;;;15.94;100.00;96398.19;4967125;29;19956;-75
2023/07/04 01:31:46;;;;;;;;;;;;;;;15.95;100.00;96386.53;4966825;29;20226;-69
2023/07/04 01:34:13;;;;;;;;;;;;;;;15.94;100.00;96374.38;4966876;29;20246;-69
2023/07/04 01:36:41;;;;;;;;;;;;;;;15.92;100.00;96383.63;4965820;29;19956;-70
2023/07/04 01:39:08;;;;;;;;;;;;;;;15.90;100.00;96378.59;4966320;29;19960;-70
2023/07/04 01:41:35;;;;;;;;;;;;;;;15.91;100.00;96374.88;4966900;29;19965;-70
2023/07/04 01:44:05;;;;;;;;;;;;;;;15.91;100.00;96372.22;4966624;29;19969;-70
2023/07/04 01:46:31;;;;;;;;;;;;;;;15.93;100.00;96364.06;4966375;29;19964;-70
2023/07/04 01:48:58;;;;;;;;;;;;;;;15.94;100.00;96369.09;4966458;29;20136;-70
2023/07/04 01:51:28;;;;;;;;;;;;;;;15.96;100.00;96366.22;4965921;29;19960;-73
2023/07/04 01:53:54;;;;;;;;;;;;;;;15.94;100.00;96363.03;4966434;29;19981;-72
2023/07/04 01:56:20;;;;;;;;;;;;;;;15.95;100.00;96364.59;4965975;29;19959;-73
2023/07/04 01:58:45;;;;;;;;;;;;;;;15.94;100.00;96363.03;4966547;29;19975;-72
2023/07/04 02:01:11;;;;;;;;;;;;;;;15.93;100.00;96369.34;4966596;29;20235;-73
2023/07/04 02:03:37;;;;;;;;;;;;;;;15.92;100.00;96367.75;4966559;29;20242;-72
2023/07/04 02:06:03;;;;;;;;;;;;;;;15.92;100.00;96365.91;4966388;29;19998;-71
2023/07/04 02:08:29;;;;;;;;;;;;;;;15.92;100.00;96363.25;4965583;29;19950;-73
2023/07/04 02:10:55;;;;;;;;;;;;;;;15.89;100.00;96361.09;4966082;29;19963;-73
2023/07/04 02:13:21;;;;;;;;;;;;;;;15.89;100.00;96361.09;4966229;29;19969;-72
2023/07/04 02:15:47;;;;;;;;;;;;;;;15.88;100.00;96364.81;4966130;29;19983;-73
2023/07/04 02:18:12;;;;;;;;;;;;;;;15.85;100.00;96362.66;4966232;29;20016;-72
2023/07/04 02:20:38;;;;;;;;;;;;;;;15.85;100.00;96365.31;4966039;29;19957;-72
2023/07/04 02:23:04;;;;;;;;;;;;;;;15.85;100.00;96370.59;4966135;29;19963;-70
2023/07/04 02:25:30;;;;;;;;;;;;;;;15.80;100.00;96355.50;4966092;29;20260;-79
2023/07/04 02:27:56;;;;;;;;;;;;;;;15.79;100.00;96364.50;4964793;29;20006;-70
2023/07/04 02:30:22;;;;;;;;;;;;;;;15.77;100.00;96366.59;4964891;29;19964;-70
2023/07/04 02:32:47;;;;;;;;;;;;;;;15.75;100.00;96368.69;4964898;29;19965;-71
2023/07/04 02:35:14;;;;;;;;;;;;;;;15.74;100.00;96374.22;4966169;29;19962;-71
2023/07/04 02:37:40;;;;;;;;;;;;;;;15.72;100.00;96373.69;4965545;29;20071;-70
2023/07/04 02:40:06;;;;;;;;;;;;;;;15.70;100.00;96373.09;4966068;29;19970;-70
2023/07/04 02:42:32;;;;;;;;;;;;;;;15.67;100.00;96379.69;4966311;29;19969;-70
2023/07/04 02:44:58;;;;;;;;;;;;;;;15.63;100.00;96381.25;4966237;29;19962;-72
2023/07/04 02:47:26;;;;;;;;;;;;;;;15.57;100.00;96387.53;4965922;29;20251;-72
2023/07/04 02:49:53;;;;;;;;;;;;;;;15.51;100.00;96386.69;4966060;29;19953;-72
2023/07/04 02:52:20;;;;;;;;;;;;;;;15.49;100.00;96375.56;4965878;29;19968;-72
2023/07/04 02:54:45;;;;;;;;;;;;;;;15.48;100.00;96391.69;4965855;29;19973;-73
2023/07/04 02:57:13;;;;;;;;;;;;;;;15.44;100.00;96386.09;4965777;29;19958;-72
2023/07/04 02:59:39;;;;;;;;;;;;;;;15.42;100.00;96391.63;4966465;29;19965;-71
2023/07/04 03:02:05;;;;;;;;;;;;;;;15.39;100.00;96392.13;4966009;29;19984;-70
2023/07/04 03:04:31;;;;;;;;;;;;;;;15.34;100.00;96386.78;4965800;29;19962;-73
2023/07/04 03:06:57;;;;;;;;;;;;;;;15.30;100.00;96380.41;4966455;28;19946;-73
2023/07/04 03:09:23;;;;;;;;;;;;;;;15.29;100.00;96399.16;4969545;29;19967;-73
2023/07/04 03:11:49;;;;;;;;;;;;;;;15.27;100.00;96382.78;4968074;29;19999;-73
2023/07/04 03:14:14;;;;;;;;;;;;;;;15.25;100.00;96387.50;4969722;29;19992;-73
2023/07/04 03:16:40;;;;;;;;;;;;;;;15.26;100.00;96392.50;4969538;29;19962;-73
2023/07/04 03:19:06;;;;;;;;;;;;;;;15.27;100.00;96398.63;4969383;29;19967;-70
2023/07/04 03:21:32;;;;;;;;;;;;;;;15.27;100.00;96395.97;4969503;29;19961;-70
2023/07/04 03:23:58;;;;;;;;;;;;;;;15.27;100.00;96395.97;4969088;29;20024;-70
2023/07/04 03:26:23;;;;;;;;;;;;;;;15.26;100.00;96387.22;4969175;29;19962;-70
2023/07/04 03:28:49;;;;;;;;;;;;;;;15.28;100.00;96402.84;4969150;29;19958;-70
2023/07/04 03:31:15;;;;;;;;;;;;;;;15.29;100.00;96401.81;4968677;29;19955;-70
2023/07/04 03:33:41;;;;;;;;;;;;;;;15.30;100.00;96400.75;4969167;29;20024;-70
2023/07/04 03:36:07;;;;;;;;;;;;;;;15.31;100.00;96399.72;4969063;29;20250;-71
2023/07/04 03:38:33;;;;;;;;;;;;;;;15.32;100.00;96403.94;4968939;29;20016;-71
2023/07/04 03:40:58;;;;;;;;;;;;;;;15.32;100.00;96401.28;4969056;29;20183;-72
2023/07/04 03:43:25;;;;;;;;;;;;;;;15.33;100.00;96406.34;4969152;29;19995;-73
2023/07/04 03:45:51;;;;;;;;;;;;;;;15.33;100.00;96401.06;4968528;29;19965;-73
2023/07/04 03:48:17;;;;;;;;;;;;;;;15.33;100.00;96398.41;4967381;29;19971;-73
2023/07/04 03:50:43;;;;;;;;;;;;;;;15.34;100.00;96402.63;4968564;29;19952;-73
2023/07/04 03:53:09;;;;;;;;;;;;;;;15.35;100.00;96400.78;4968820;29;19965;-73
2023/07/04 03:55:35;;;;;;;;;;;;;;;15.36;100.00;96395.25;4968601;29;19983;-70
2023/07/04 03:58:02;;;;;;;;;;;;;;;15.36;100.00;96397.91;4968559;29;19968;-80
2023/07/04 04:00:27;;;;;;;;;;;;;;;15.38;100.00;96390.53;4951071;29;19971;-79
2023/07/04 04:02:53;;;;;;;;;;;;;;;15.40;100.00;96399.00;4968635;29;20168;-78
2023/07/04 04:05:19;;;;;;;;;;;;;;;15.42;100.00;96404.03;4967127;29;20249;-77
2023/07/04 04:07:48;;;;;;;;;;;;;;;15.40;100.00;96398.22;4968059;29;19950;-78
2023/07/04 04:10:17;;;;;;;;;;;;;;;15.38;100.00;96392.38;4951558;29;19992;-78
2023/07/04 04:12:43;;;;;;;;;;;;;;;15.37;100.00;96391.59;4967473;29;19961;-78
2023/07/04 04:15:10;;;;;;;;;;;;;;;15.37;100.00;96406.63;4968605;29;19972;-74
2023/07/04 04:17:36;;;;;;;;;;;;;;;15.40;100.00;96400.84;4966739;29;19966;-70
2023/07/04 04:20:06;;;;;;;;;;;;;;;15.43;100.00;96392.41;4967441;28;19960;-70
2023/07/04 04:22:33;;;;;;;;;;;;;;;15.46;100.00;96393.78;4968209;29;20252;-70
2023/07/04 04:24:59;;;;;;;;;;;;;;;15.46;100.00;96394.56;4968301;29;20245;-70
2023/07/04 04:27:30;;;;;;;;;;;;;;;15.42;100.00;96399.56;4968227;29;19955;-70
2023/07/04 04:29:56;;;;;;;;;;;;;;;15.44;100.00;96401.97;4968041;29;19968;-70
2023/07/04 04:32:22;;;;;;;;;;;;;;;15.47;100.00;96396.16;4968059;29;19961;-71
2023/07/04 04:34:48;;;;;;;;;;;;;;;15.51;100.00;96405.19;4966919;29;19948;-70
2023/07/04 04:37:16;;;;;;;;;;;;;;;15.55;100.00;96405.50;4951092;29;20041;-83
2023/07/04 04:39:44;;;;;;;;;;;;;;;15.58;100.00;96402.34;4967577;29;19961;-80
2023/07/04 04:42:14;;;;;;;;;;;;;;;15.62;100.00;96404.25;4950866;29;19965;-80
2023/07/04 04:44:43;;;;;;;;;;;;;;;15.67;100.00;96400.84;4966409;29;20122;-80
2023/07/04 04:47:09;;;;;;;;;;;;;;;15.70;100.00;96410.13;4966351;29;20279;-80
2023/07/04 04:49:34;;;;;;;;;;;;;;;15.72;100.00;96411.47;4966214;29;19958;-80
2023/07/04 04:52:00;;;;;;;;;;;;;;;15.75;100.00;96404.91;4967603;29;19985;-70
2023/07/04 04:54:27;;;;;;;;;;;;;;;15.76;100.00;96417.06;4966269;29;19968;-74
2023/07/04 04:56:53;;;;;;;;;;;;;;;15.71;100.00;96419.66;4966323;29;20156;-74
2023/07/04 04:59:19;;;;;;;;;;;;;;;15.67;100.00;96422.00;4966988;29;19970;-74
2023/07/04 05:01:45;;;;;;;;;;;;;;;15.63;100.00;96418.25;4967005;29;19943;-74
2023/07/04 05:04:11;;;;;;;;;;;;;;;15.63;100.00;96412.97;4967451;29;20145;-74
2023/07/04 05:06:36;;;;;;;;;;;;;;;15.64;100.00;96419.84;4967657;29;19963;-74
2023/07/04 05:09:04;;;;;;;;;;;;;;;15.68;100.00;96430.72;4967423;29;19965;-81
2023/07/04 05:11:33;;;;;;;;;;;;;;;15.72;100.00;96424.69;4967048;29;19967;-80
2023/07/04 05:14:00;;;;;;;;;;;;;;;15.75;100.00;96432.16;4967148;29;19957;-71
2023/07/04 05:16:26;;;;;;;;;;;;;;;15.76;100.00;96431.09;4965804;29;19962;-71
2023/07/04 05:18:52;;;;;;;;;;;;;;;15.76;100.00;96419.72;4949473;29;19982;-71
2023/07/04 05:21:19;;;;;;;;;;;;;;;15.81;100.00;96428.50;4949848;29;19989;-71
2023/07/04 05:23:46;;;;;;;;;;;;;;;15.87;100.00;96424.03;4949664;29;19962;-71
2023/07/04 05:26:23;;;;;;;;;;;;;;;15.89;100.00;96429.88;4965741;29;19970;-71
2023/07/04 05:28:53;;;;;;;;;;;;;;;15.95;100.00;96428.06;4966020;29;19941;-71
2023/07/04 05:31:21;;;;;;;;;;;;;;;15.98;100.00;96436.31;4966015;28;19962;-71
2023/07/04 05:33:47;;;;;;;;;;;;;;;16.00;100.00;96433.38;4967100;29;19967;-70
2023/07/04 05:36:13;;;;;;;;;;;;;;;16.02;100.00;96436.59;4965840;29;19972;-71
2023/07/04 05:38:39;;;;;;;;;;;;;;;16.04;100.00;96429.19;4965244;29;19978;-71
2023/07/04 05:41:09;;;;;;;;;;;;;;;16.08;100.00;96430.28;4966571;29;19964;-71
2023/07/04 05:43:35;;;;;;;;;;;;;;;16.14;100.00;96431.13;4966901;29;19959;-71
2023/07/04 05:46:01;;;;;;;;;;;;;;;16.18;100.00;96419.00;4966808;29;19961;-71
2023/07/04 05:48:26;;;;;;;;;;;;;;;16.20;100.00;96422.19;4966257;29;19980;-71
2023/07/04 05:50:53;;;;;;;;;;;;;;;16.24;100.00;96423.25;4966764;29;20113;-82
2023/07/04 05:53:21;;;;;;;;;;;;;;;16.30;100.00;96430.19;4966437;29;19962;-82
2023/07/04 05:55:47;;;;;;;;;;;;;;;16.36;100.00;96434.47;4949625;29;20130;-82
2023/07/04 05:58:13;;;;;;;;;;;;;;;16.42;100.00;96435.28;4965663;29;20001;-81
2023/07/04 06:00:39;;;;;;;;;;;;;;;16.49;100.00;96435.88;4964895;29;19972;-82
2023/07/04 06:03:05;;;;;;;;;;;;;;;16.58;100.00;96441.47;4966410;29;19958;-85
2023/07/04 06:05:31;;;;;;;;;;;;;;;16.77;100.00;96433.91;4966722;29;19998;-72
2023/07/04 06:07:56;;;;;;;;;;;;;;;16.97;100.00;96433.25;4966182;29;19986;-70
2023/07/04 06:10:23;;;;;;;;;;;;;;;17.08;100.00;96434.06;4966204;29;19996;-70
2023/07/04 06:12:50;;;;;;;;;;;;;;;17.10;100.00;96431.97;4966296;29;20154;-70
2023/07/04 06:15:16;;;;;;;;;;;;;;;17.13;100.00;96436.72;4966204;29;19984;-70
2023/07/04 06:17:42;;;;;;;;;;;;;;;17.14;100.00;96435.69;4965861;29;19957;-71
2023/07/04 06:20:08;;;;;;;;;;;;;;;17.14;100.00;96433.81;4966294;29;19969;-70
2023/07/04 06:22:34;;;;;;;;;;;;;;;17.19;100.00;96435.69;4966163;29;19966;-72
2023/07/04 06:25:00;;;;;;;;;;;;;;;17.24;100.00;96438.38;4966005;29;19948;-82
2023/07/04 06:27:27;;;;;;;;;;;;;;;17.26;100.00;96441.56;4966592;29;19967;-85
2023/07/04 06:29:55;;;;;;;;;;;;;;;17.27;100.00;96440.50;4966577;29;19962;-83
2023/07/04 06:32:21;;;;;;;;;;;;;;;17.25;100.00;96442.59;4949492;29;19968;-82
2023/07/04 06:34:47;;;;;;;;;;;;;;;17.20;100.00;96442.59;4966164;29;19956;-83
2023/07/04 06:37:12;;;;;;;;;;;;;;;17.14;100.00;96439.13;4964811;29;20012;-83
2023/07/04 06:39:38;;;;;;;;;;;;;;;17.15;100.00;96448.66;4965119;29;19991;-82
2023/07/04 06:42:04;;;;;;;;;;;;;;;17.16;100.00;96434.38;4966245;28;20024;-70
2023/07/04 06:44:30;;;;;;;;;;;;;;;17.20;100.00;96448.69;4969986;29;19961;-71
2023/07/04 06:46:56;;;;;;;;;;;;;;;17.23;100.00;96440.19;4969646;29;19970;-71
2023/07/04 06:49:23;;;;;;;;;;;;;;;17.25;100.00;96442.59;4969924;29;19954;-70
2023/07/04 06:51:48;;;;;;;;;;;;;;;17.28;100.00;96441.28;4969906;29;19986;-70
2023/07/04 06:54:14;;;;;;;;;;;;;;;17.33;100.00;96444.75;4969365;29;20234;-70
2023/07/04 06:56:40;;;;;;;;;;;;;;;17.39;100.00;96448.22;4969991;29;19955;-70
2023/07/04 06:59:06;;;;;;;;;;;;;;;17.46;100.00;96456.72;4970032;29;19965;-89
2023/07/04 07:01:32;;;;;;;;;;;;;;;17.55;100.00;96454.34;4968875;29;19970;-74
2023/07/04 07:03:59;;;;;;;;;;;;;;;17.68;100.00;96453.84;4969693;29;19955;-82
2023/07/04 07:06:25;;;;;;;;;;;;;;;17.72;100.00;96452.25;4969376;29;19968;-81
2023/07/04 07:08:51;;;;;;;;;;;;;;;17.76;100.00;96455.97;4968466;29;19950;-82
2023/07/04 07:11:18;;;;;;;;;;;;;;;17.77;100.00;96462.88;4969460;29;19971;-81
2023/07/04 07:13:46;;;;;;;;;;;;;;;17.85;100.00;96465.03;4969769;29;19957;-81
2023/07/04 07:16:20;;;;;;;;;;;;;;;18.00;100.00;96458.16;4968340;29;19961;-82
2023/07/04 07:18:46;;;;;;;;;;;;;;;18.11;98.65;96446.47;4968100;29;19964;-86
2023/07/04 07:21:14;;;;;;;;;;;;;;;18.16;98.73;96457.06;4967828;29;19943;-71
2023/07/04 07:23:40;;;;;;;;;;;;;;;18.22;98.20;96441.97;4969108;29;19956;-71
2023/07/04 07:26:07;;;;;;;;;;;;;;;18.23;98.39;96457.63;4969532;29;20127;-71
2023/07/04 07:28:38;;;;;;;;;;;;;;;18.27;95.25;96444.63;4969288;29;19963;-72
2023/07/04 07:31:04;;;;;;;;;;;;;;;18.35;95.71;96454.72;4969431;29;20010;-71
2023/07/04 07:33:31;;;;;;;;;;;;;;;18.38;92.49;96440.88;4969014;29;19960;-71
2023/07/04 07:35:57;;;;;;;;;;;;;;;18.45;93.37;96448.56;4968629;29;20269;-72
2023/07/04 07:38:23;;;;;;;;;;;;;;;18.48;92.06;96448.06;4967954;29;19983;-72
2023/07/04 07:40:50;;;;;;;;;;;;;;;18.53;91.50;96448.03;4968213;29;20233;-79
2023/07/04 07:43:16;;;;;;;;;;;;;;;18.59;92.34;96460.22;4969177;29;19961;-79
2023/07/04 07:45:43;;;;;;;;;;;;;;;18.71;93.46;96454.66;4967633;29;19960;-78
2023/07/04 07:48:09;;;;;;;;;;;;;;;18.90;89.92;96438.13;4969134;29;19968;-80
2023/07/04 07:50:35;;;;;;;;;;;;;;;19.05;88.76;96427.47;4967817;29;19945;-79
2023/07/04 07:53:00;;;;;;;;;;;;;;;19.15;85.35;96416.78;4967317;28;19972;-78
2023/07/04 07:55:26;;;;;;;;;;;;;;;19.25;87.06;96422.03;4951760;29;19964;-84
2023/07/04 07:57:52;;;;;;;;;;;;;;;19.37;86.40;96426.25;4968717;29;19960;-72
2023/07/04 08:00:18;;;;;;;;;;;;;;;19.43;84.20;96415.28;4967507;29;19973;-71
2023/07/04 08:02:44;;;;;;;;;;;;;;;19.55;85.55;96425.59;4968437;29;19966;-71
2023/07/04 08:05:10;;;;;;;;;;;;;;;19.66;84.15;96421.81;4968369;29;20250;-71
2023/07/04 08:07:35;;;;;;;;;;;;;;;19.70;81.55;96400.78;4968372;29;19970;-71
2023/07/04 08:10:01;;;;;;;;;;;;;;;19.91;82.13;96413.94;4968597;29;19960;-72
2023/07/04 08:12:27;;;;;;;;;;;;;;;20.11;80.46;96389.81;4968404;29;19988;-71
2023/07/04 08:14:53;;;;;;;;;;;;;;;20.17;79.35;96386.03;4968546;29;19957;-81
2023/07/04 08:17:21;;;;;;;;;;;;;;;20.28;79.33;96384.88;4968441;29;19957;-82
2023/07/04 08:19:47;;;;;;;;;;;;;;;20.43;78.53;96388.44;4951432;29;19967;-81
2023/07/04 09:02:46;;;;;;;;;;;;;;;20.55;74.84;96378.19;4981759;23;19946;-70
2023/07/04 09:05:16;;;;;;;;;;;;;;;20.54;75.26;96386.47;5020654;23;19974;-70
2023/07/04 09:08:04;;;;;;;;;;;;;;;20.53;75.15;96387.53;4966096;29;19962;-70
2023/07/04 09:13:36;;;;;;;;;;;;;;;21.02;75.16;96376.59;4980887;23;20112;-78
2023/07/04 09:16:05;;;;;;;;;;;;;;;21.16;73.81;96365.22;4966844;29;19968;-78
2023/07/04 09:18:52;;;;;;;;;;;;;;;21.19;71.78;96354.00;4965763;29;19959;-78
2023/07/04 09:21:19;;;;;;;;;;;;;;;21.10;70.85;96351.16;4965563;29;19962;-78
2023/07/04 09:23:46;;;;;;;;;;;;;;;21.25;73.66;96374.16;4949697;29;19963;-78
2023/07/04 09:26:16;;;;;;;;;;;;;;;21.48;69.64;96335.97;4967111;29;19962;-78
2023/07/04 09:28:44;;;;;;;;;;;;;;;21.68;67.90;96310.84;4967248;29;19981;-71
2023/07/04 09:31:18;;;;;;;;;;;;;;;21.72;68.55;96315.59;4966757;29;19957;-72
2023/07/04 09:33:45;;;;;;;;;;;;;;;21.84;70.14;96331.94;4949458;29;19967;-72
2023/07/04 09:36:11;;;;;;;;;;;;;;;22.05;67.63;96314.47;4966720;29;20101;-73
2023/07/04 09:38:50;;;;;;;;;;;;;;;22.22;66.71;96303.22;4965460;29;19963;-72
2023/07/04 09:41:15;;;;;;;;;;;;;;;22.36;65.56;96308.59;4966942;29;19954;-71
2023/07/04 09:43:41;;;;;;;;;;;;;;;22.50;66.32;96325.41;4965342;29;19972;-72
2023/07/04 09:46:25;;;;;;;;;;;;;;;22.62;63.33;96300.88;4949248;29;19970;-73
2023/07/04 09:48:51;;;;;;;;;;;;;;;22.83;64.00;96305.78;4965779;29;19976;-72
2023/07/04 09:51:25;;;;;;;;;;;;;;;22.93;59.70;96368.94;4966504;29;19955;-72
2023/07/04 09:54:08;;;;;;;;;;;;;;;22.99;60.28;96387.25;4949298;29;19963;-74
2023/07/04 09:56:34;;;;;;;;;;;;;;;22.74;61.31;96382.44;4966827;29;20131;-72
2023/07/04 09:59:10;;;;;;;;;;;;;;;22.72;64.17;96397.97;4966540;29;19970;-71
2023/07/04 10:01:40;;;;;;;;;;;;;;;22.72;60.18;96380.06;4966663;29;19958;-72
2023/07/04 10:04:07;;;;;;;;;;;;;;;22.62;57.94;96369.56;4966035;29;20163;-78
2023/07/04 10:06:35;;;;;;;;;;;;;;;22.64;58.46;96360.16;4965632;29;19968;-79
2023/07/04 10:09:02;;;;;;;;;;;;;;;22.75;60.71;96376.78;4966113;29;19967;-71
2023/07/04 10:11:35;;;;;;;;;;;;;;;22.57;59.70;96383.03;4966113;29;19962;-71
2023/07/04 10:14:08;;;;;;;;;;;;;;;22.30;62.40;96403.31;4966153;29;19971;-71
2023/07/04 10:16:34;;;;;;;;;;;;;;;22.44;63.24;96397.97;4965647;28;20148;-71
2023/07/04 10:19:03;;;;;;;;;;;;;;;22.70;62.67;96383.03;4966208;29;19963;-71
2023/07/04 10:21:29;;;;;;;;;;;;;;;22.88;59.56;96364.50;4966323;29;19959;-71
2023/07/04 10:23:55;;;;;;;;;;;;;;;22.94;61.01;96376.69;4966322;29;19981;-71
2023/07/04 10:26:21;;;;;;;;;;;;;;;22.78;58.38;96370.06;4964839;29;20024;-73
2023/07/04 10:28:48;;;;;;;;;;;;;;;22.82;51.41;96342.41;4966228;29;19961;-73
2023/07/04 10:31:17;;;;;;;;;;;;;;;22.79;56.06;96360.97;4966037;29;19970;-73
2023/07/04 10:33:47;;;;;;;;;;;;;;;22.62;56.93;96366.91;4966520;29;19963;-73
2023/07/04 10:36:14;;;;;;;;;;;;;;;22.44;55.02;96358.66;4966436;29;20148;-73
2023/07/04 10:38:42;;;;;;;;;;;;;;;22.33;57.05;96375.97;4966362;29;19963;-73
2023/07/04 10:41:18;;;;;;;;;;;;;;;22.33;55.03;96362.63;4966287;29;20038;-71
2023/07/04 10:43:47;;;;;;;;;;;;;;;22.63;54.71;96355.13;4948669;29;20272;-72
2023/07/04 10:46:15;;;;;;;;;;;;;;;22.98;53.55;96356.28;4966145;29;20127;-71
2023/07/04 10:48:44;;;;;;;;;;;;;;;23.35;52.00;96346.41;4964925;29;19966;-72
2023/07/04 10:51:15;;;;;;;;;;;;;;;23.62;52.61;96350.06;4966080;29;19965;-72
2023/07/04 10:53:41;;;;;;;;;;;;;;;23.59;54.24;96364.06;4966103;29;20085;-72
2023/07/04 10:56:13;;;;;;;;;;;;;;;23.45;51.12;96351.50;4965092;29;20009;-71
2023/07/04 10:58:42;;;;;;;;;;;;;;;23.58;53.52;96360.63;4965087;29;19961;-77
2023/07/04 11:01:13;;;;;;;;;;;;;;;23.82;50.95;96348.81;4948932;29;20048;-70
2023/07/04 11:03:49;;;;;;;;;;;;;;;24.14;52.12;96361.13;4949002;29;20128;-71
2023/07/04 11:06:19;;;;;;;;;;;;;;;24.44;47.20;96348.03;4964579;29;19963;-71
2023/07/04 11:08:45;;;;;;;;;;;;;;;24.74;47.19;96357.16;4966024;29;20102;-72
2023/07/04 11:11:12;;;;;;;;;;;;;;;25.08;50.48;96366.41;4965903;29;19958;-72
2023/07/04 11:13:49;;;;;;;;;;;;;;;25.19;46.00;96353.47;4964529;29;19963;-72
2023/07/04 11:16:17;;;;;;;;;;;;;;;24.99;46.16;96373.63;4965031;29;20154;-71
2023/07/04 11:18:44;;;;;;;;;;;;;;;24.66;46.99;96372.13;4966162;29;19960;-72
2023/07/04 11:21:12;;;;;;;;;;;;;;;24.54;45.46;96363.09;4964455;29;19978;-71
2023/07/04 11:23:51;;;;;;;;;;;;;;;24.62;44.53;96356.97;4965547;29;19956;-71
2023/07/04 11:26:18;;;;;;;;;;;;;;;24.79;47.42;96365.06;4965939;29;19962;-71
2023/07/04 11:28:46;;;;;;;;;;;;;;;25.13;48.06;96363.53;4967996;28;19956;-71
2023/07/04 11:31:15;;;;;;;;;;;;;;;25.36;51.42;96352.72;4969388;29;19961;-71
2023/07/04 11:33:44;;;;;;;;;;;;;;;25.40;46.23;96346.38;4969225;29;20238;-71
2023/07/04 11:36:25;;;;;;;;;;;;;;;25.24;45.01;96350.63;4968657;29;19966;-71
2023/07/04 11:38:52;;;;;;;;;;;;;;;24.96;46.22;96355.47;4968299;29;20222;-72
2023/07/04 11:41:40;;;;;;;;;;;;;;;24.85;47.73;96357.66;4969452;29;20160;-72
2023/07/04 11:44:32;;;;;;;;;;;;;;;24.89;46.62;96353.25;4968790;29;19960;-71
2023/07/04 11:47:10;;;;;;;;;;;;;;;24.95;46.79;96353.88;4967068;29;20150;-72
2023/07/04 11:49:36;;;;;;;;;;;;;;;24.85;44.67;96353.09;4969018;29;20246;-72
2023/07/04 11:52:04;;;;;;;;;;;;;;;24.61;43.97;96345.47;4967466;29;19965;-72
2023/07/04 11:54:31;;;;;;;;;;;;;;;24.46;46.32;96354.69;4969058;29;19962;-70
2023/07/04 11:56:57;;;;;;;;;;;;;;;24.33;46.95;96336.00;4967969;29;19952;-72
2023/07/04 11:59:24;;;;;;;;;;;;;;;24.56;48.32;96342.91;4968840;29;19971;-71
2023/07/04 12:01:50;;;;;;;;;;;;;;;24.92;45.40;96341.88;4968632;29;19958;-71
2023/07/04 12:04:20;;;;;;;;;;;;;;;25.09;45.64;96333.88;4968813;29;20034;-71
2023/07/04 12:06:56;;;;;;;;;;;;;;;25.32;45.25;96339.13;4968620;29;19971;-71
2023/07/04 12:09:35;;;;;;;;;;;;;;;25.44;45.27;96333.13;4968511;29;19964;-71
2023/07/04 12:12:03;;;;;;;;;;;;;;;25.38;45.09;96327.13;4968525;29;20133;-71
2023/07/04 12:14:31;;;;;;;;;;;;;;;25.29;47.82;96335.19;4968578;29;19962;-72
2023/07/04 12:16:59;;;;;;;;;;;;;;;25.17;43.03;96326.16;4968536;29;19949;-72
2023/07/04 12:19:25;;;;;;;;;;;;;;;25.15;45.65;96331.81;4967071;29;20275;-72
2023/07/04 12:21:51;;;;;;;;;;;;;;;25.08;42.55;96318.88;4968402;29;19976;-71
2023/07/04 12:24:22;;;;;;;;;;;;;;;24.97;43.35;96327.53;4951219;29;19976;-72
2023/07/04 12:26:51;;;;;;;;;;;;;;;24.83;41.40;96325.00;4968042;29;19966;-72
2023/07/04 12:29:17;;;;;;;;;;;;;;;24.87;44.92;96323.28;4968005;29;19966;-71
2023/07/04 12:31:43;;;;;;;;;;;;;;;24.85;44.69;96328.94;4968083;29;20274;-78
2023/07/04 12:34:10;;;;;;;;;;;;;;;24.81;42.89;96319.94;4966796;29;19964;-71
2023/07/04 12:36:43;;;;;;;;;;;;;;;24.79;42.32;96324.81;4968099;29;19979;-71
2023/07/04 12:39:09;;;;;;;;;;;;;;;24.94;44.92;96328.16;4967664;28;19962;-71
2023/07/04 12:41:38;;;;;;;;;;;;;;;25.19;43.51;96315.88;4967762;29;20021;-71
2023/07/04 12:44:05;;;;;;;;;;;;;;;25.42;46.35;96317.31;4967532;29;19960;-71
2023/07/04 12:46:31;;;;;;;;;;;;;;;25.80;45.72;96305.91;4968079;29;20130;-71
2023/07/04 12:48:58;;;;;;;;;;;;;;;26.04;44.43;96304.59;4968144;29;19963;-71
2023/07/04 12:51:26;;;;;;;;;;;;;;;26.04;42.98;96297.34;4966759;29;20247;-71
2023/07/04 12:53:53;;;;;;;;;;;;;;;25.91;42.72;96292.94;4966621;29;19966;-70
2023/07/04 12:56:20;;;;;;;;;;;;;;;25.66;42.94;96286.50;4967906;29;19963;-71
2023/07/04 12:58:46;;;;;;;;;;;;;;;25.38;43.66;96300.28;4966256;29;19965;-70
2023/07/04 13:01:18;;;;;;;;;;;;;;;25.03;41.30;96300.25;4967475;29;19971;-71
2023/07/04 13:03:44;;;;;;;;;;;;;;;24.86;44.54;96298.34;4966403;29;19967;-70
2023/07/04 13:06:12;;;;;;;;;;;;;;;24.86;44.55;96300.22;4967069;29;19990;-71
2023/07/04 13:08:46;;;;;;;;;;;;;;;24.84;43.31;96289.81;4967759;29;19942;-71
2023/07/04 13:11:12;;;;;;;;;;;;;;;24.81;43.94;96298.47;4965894;29;19979;-72
2023/07/04 13:13:39;;;;;;;;;;;;;;;24.83;44.09;96290.13;4966079;29;19960;-73
2023/07/04 13:16:18;;;;;;;;;;;;;;;24.90;44.20;96291.25;4967023;29;19957;-72
2023/07/04 13:18:44;;;;;;;;;;;;;;;24.95;43.67;96292.19;4967253;29;19961;-72
2023/07/04 13:21:21;;;;;;;;;;;;;;;24.91;44.12;96298.19;4966986;29;20144;-73
2023/07/04 13:23:47;;;;;;;;;;;;;;;24.86;42.55;96282.25;4967310;29;20109;-73
2023/07/04 13:26:17;;;;;;;;;;;;;;;24.82;44.36;96283.16;4967276;29;19973;-72